createdAt,value
2023-05-14T04:15:23.774Z,9.15
2023-05-14T04:16:23.818Z,9.16
2023-05-14T04:17:23.871Z,9.23
2023-05-14T04:18:23.731Z,9.28
2023-05-14T04:19:23.725Z,9.30
2023-05-14T04:20:23.859Z,9.32
2023-05-14T04:21:23.734Z,9.34
2023-05-14T04:22:23.681Z,9.40
2023-05-14T04:23:23.667Z,9.43
2023-05-14T04:24:23.653Z,9.48
2023-05-14T04:25:23.655Z,9.49
2023-05-14T04:26:23.644Z,9.52
2023-05-14T04:27:23.629Z,9.53
2023-05-14T04:28:23.595Z,9.52
2023-05-14T04:29:23.590Z,9.52
2023-05-14T04:30:23.829Z,9.53
2023-05-14T04:31:23.629Z,9.60
2023-05-14T04:32:23.585Z,9.70
2023-05-14T04:33:23.545Z,9.79
2023-05-14T04:34:23.524Z,9.88
2023-05-14T04:35:25.035Z,9.91
2023-05-14T04:36:23.495Z,9.89
2023-05-14T04:37:23.488Z,9.93
2023-05-14T04:38:23.467Z,9.97
2023-05-14T04:39:23.468Z,10.01
2023-05-14T04:40:23.598Z,10.04
2023-05-14T04:41:23.439Z,10.10
2023-05-14T04:42:23.427Z,10.15
2023-05-14T04:43:23.412Z,10.22
2023-05-14T04:44:23.401Z,10.30
2023-05-14T04:45:23.403Z,10.30
2023-05-14T04:46:23.427Z,10.28
2023-05-14T04:47:23.379Z,10.33
2023-05-14T04:48:23.352Z,10.34
2023-05-14T04:49:23.375Z,10.39
2023-05-14T04:50:23.478Z,10.43
2023-05-14T04:51:23.300Z,10.44
2023-05-14T04:52:23.288Z,10.44
2023-05-14T04:53:23.283Z,10.44
2023-05-14T04:54:23.290Z,10.44
2023-05-14T04:55:23.258Z,10.46
2023-05-14T04:56:23.234Z,10.52
2023-05-14T04:57:23.245Z,10.58
2023-05-14T04:58:23.217Z,10.58
2023-05-14T04:59:23.223Z,10.63
2023-05-14T05:00:23.480Z,10.68
2023-05-14T05:01:23.199Z,10.71
2023-05-14T05:02:23.163Z,10.74
2023-05-14T05:03:23.228Z,10.73
2023-05-14T05:04:23.138Z,10.71
2023-05-14T05:05:23.130Z,10.73
2023-05-14T05:06:23.109Z,10.77
2023-05-14T05:07:23.101Z,10.77
2023-05-14T05:08:23.096Z,10.74
2023-05-14T05:09:23.075Z,10.74
2023-05-14T05:10:23.357Z,10.74
2023-05-14T05:11:23.051Z,10.71
2023-05-14T05:12:23.052Z,10.70
2023-05-14T05:13:23.048Z,10.74
2023-05-14T05:14:23.011Z,10.83
2023-05-14T05:15:24.713Z,10.88
2023-05-14T05:16:23.099Z,10.89
2023-05-14T05:17:23.021Z,10.92
2023-05-14T05:18:22.978Z,10.99
2023-05-14T05:19:35.815Z,11.07
2023-05-14T05:20:24.063Z,11.09
2023-05-14T05:21:22.917Z,11.07
2023-05-14T05:22:22.922Z,11.09
2023-05-14T05:23:22.893Z,11.10
2023-05-14T05:24:22.877Z,11.11
2023-05-14T05:25:22.868Z,11.14
2023-05-14T05:26:22.857Z,11.20
2023-05-14T05:27:22.861Z,11.28
2023-05-14T05:28:22.823Z,11.35
2023-05-14T05:29:22.810Z,11.39
2023-05-14T05:30:23.056Z,11.50
2023-05-14T05:31:22.894Z,11.56
2023-05-14T05:32:22.830Z,11.64
2023-05-14T05:33:22.762Z,11.71
2023-05-14T05:34:22.747Z,11.80
2023-05-14T05:35:22.732Z,11.83
2023-05-14T05:36:22.731Z,11.94
2023-05-14T05:37:22.729Z,11.97
2023-05-14T05:38:22.693Z,12.04
2023-05-14T05:39:22.678Z,12.09
2023-05-14T05:40:22.849Z,12.15
2023-05-14T05:41:22.675Z,12.23
2023-05-14T05:42:22.692Z,12.26
2023-05-14T05:43:22.628Z,12.30
2023-05-14T05:44:22.626Z,12.37
2023-05-14T05:45:22.663Z,12.39
2023-05-14T05:46:22.669Z,12.42
2023-05-14T05:47:22.627Z,12.45
2023-05-14T05:48:22.587Z,12.51
2023-05-14T05:49:22.551Z,12.54
2023-05-14T05:50:22.873Z,12.59
2023-05-14T05:51:22.522Z,12.63
2023-05-14T05:52:22.505Z,12.70
2023-05-14T05:53:22.519Z,12.74
2023-05-14T05:54:22.486Z,12.82
2023-05-14T05:55:22.484Z,12.87
2023-05-14T05:56:22.446Z,12.92
2023-05-14T05:57:23.207Z,12.99
2023-05-14T05:58:22.428Z,13.09
2023-05-14T05:59:22.444Z,13.20
2023-05-14T06:00:22.727Z,13.24
2023-05-14T06:01:22.412Z,13.33
2023-05-14T06:02:22.473Z,13.44
2023-05-14T06:03:22.414Z,13.54
2023-05-14T06:04:22.479Z,13.59
2023-05-14T06:05:22.390Z,13.62
2023-05-14T06:06:22.334Z,13.62
2023-05-14T06:07:22.318Z,13.69
2023-05-14T06:08:22.431Z,13.73
2023-05-14T06:09:22.405Z,13.77
2023-05-14T06:10:22.623Z,13.84
2023-05-14T06:11:22.523Z,13.92
2023-05-14T06:12:22.259Z,13.94
2023-05-14T06:13:22.252Z,13.98
2023-05-14T06:14:22.245Z,14.06
2023-05-14T06:15:22.226Z,14.06
2023-05-14T06:16:22.241Z,14.04
2023-05-14T06:17:22.265Z,14.09
2023-05-14T06:18:22.196Z,14.13
2023-05-14T06:19:22.467Z,14.19
2023-05-14T06:20:22.372Z,14.19
2023-05-14T06:21:22.197Z,14.21
2023-05-14T06:22:22.137Z,14.27
2023-05-14T06:23:22.154Z,14.28
2023-05-14T06:24:22.101Z,14.28
2023-05-14T06:25:22.197Z,14.27
2023-05-14T06:26:22.076Z,14.28
2023-05-14T06:27:22.095Z,14.32
2023-05-14T06:28:22.057Z,14.42
2023-05-14T06:29:22.033Z,14.47
2023-05-14T06:30:22.210Z,14.47
2023-05-14T06:31:22.050Z,14.38
2023-05-14T06:32:22.081Z,14.43
2023-05-14T06:33:21.980Z,14.72
2023-05-14T06:34:21.965Z,14.90
2023-05-14T06:35:21.942Z,15.03
2023-05-14T06:36:21.936Z,15.15
2023-05-14T06:37:21.948Z,15.23
2023-05-14T06:38:21.912Z,15.27
2023-05-14T06:39:21.901Z,15.36
2023-05-14T06:40:22.214Z,15.42
2023-05-14T06:41:21.892Z,15.46
2023-05-14T06:42:21.870Z,15.45
2023-05-14T06:43:21.845Z,15.52
2023-05-14T06:44:21.830Z,15.60
2023-05-14T06:45:21.815Z,15.60
2023-05-14T06:46:21.834Z,15.67
2023-05-14T06:47:21.813Z,15.82
2023-05-14T06:48:21.866Z,15.93
2023-05-14T06:49:21.774Z,16.00
2023-05-14T06:50:21.974Z,16.01
2023-05-14T06:51:21.788Z,16.01
2023-05-14T06:52:21.730Z,15.99
2023-05-14T06:53:21.718Z,16.04
2023-05-14T06:54:21.737Z,16.01
2023-05-14T06:55:21.698Z,15.96
2023-05-14T06:56:21.694Z,16.00
2023-05-14T06:57:21.667Z,16.12
2023-05-14T06:58:21.650Z,16.16
2023-05-14T06:59:21.655Z,16.27
2023-05-14T07:00:21.986Z,16.30
2023-05-14T07:01:21.677Z,16.33
2023-05-14T07:02:21.658Z,16.38
2023-05-14T07:03:21.582Z,16.34
2023-05-14T07:04:21.649Z,16.30
2023-05-14T07:05:21.571Z,16.41
2023-05-14T07:06:21.546Z,16.58
2023-05-14T07:07:21.538Z,16.63
2023-05-14T07:08:21.540Z,16.67
2023-05-14T07:09:21.504Z,16.78
2023-05-14T07:10:21.609Z,16.92
2023-05-14T07:11:21.478Z,16.98
2023-05-14T07:12:21.472Z,17.06
2023-05-14T07:13:21.449Z,17.17
2023-05-14T07:14:21.445Z,17.23
2023-05-14T07:15:21.457Z,17.28
2023-05-14T07:16:21.413Z,17.33
2023-05-14T07:17:21.465Z,17.43
2023-05-14T07:18:21.379Z,17.35
2023-05-14T07:19:21.383Z,17.40
2023-05-14T07:20:21.424Z,17.32
2023-05-14T07:21:21.349Z,17.43
2023-05-14T07:22:21.339Z,17.53
2023-05-14T07:23:21.324Z,17.63
2023-05-14T07:24:21.326Z,17.73
2023-05-14T07:25:21.318Z,17.64
2023-05-14T07:26:21.282Z,17.67
2023-05-14T07:27:21.285Z,17.69
2023-05-14T07:28:21.252Z,17.63
2023-05-14T07:29:21.260Z,17.69
2023-05-14T07:30:21.390Z,17.74
2023-05-14T07:31:21.298Z,17.81
2023-05-14T07:32:21.198Z,17.89
2023-05-14T07:33:21.208Z,18.03
2023-05-14T07:34:21.207Z,18.17
2023-05-14T07:35:21.169Z,18.22
2023-05-14T07:36:21.158Z,18.17
2023-05-14T07:37:23.666Z,18.15
2023-05-14T07:38:21.142Z,18.24
2023-05-14T07:39:21.119Z,18.21
2023-05-14T07:40:21.197Z,18.22
2023-05-14T07:41:21.093Z,18.10
2023-05-14T07:42:34.521Z,18.02
2023-05-14T07:43:22.071Z,17.97
2023-05-14T07:44:21.047Z,17.92
2023-05-14T07:45:21.031Z,18.03
2023-05-14T07:46:21.027Z,18.09
2023-05-14T07:47:21.070Z,18.00
2023-05-14T07:48:21.051Z,18.07
2023-05-14T07:49:21.006Z,17.82
2023-05-14T07:50:21.006Z,17.79
2023-05-14T07:51:20.956Z,17.88
2023-05-14T07:52:21.056Z,18.06
2023-05-14T07:53:20.934Z,18.13
2023-05-14T07:54:20.915Z,18.25
2023-05-14T07:55:20.908Z,18.33
2023-05-14T07:56:20.901Z,18.17
2023-05-14T07:57:20.893Z,18.17
2023-05-14T07:58:20.859Z,18.29
2023-05-14T07:59:20.855Z,18.22
2023-05-14T08:00:20.937Z,18.29
2023-05-14T08:01:20.859Z,18.44
2023-05-14T08:02:20.948Z,18.61
2023-05-14T08:03:20.918Z,18.62
2023-05-14T08:04:20.890Z,18.68
2023-05-14T08:05:20.788Z,18.70
2023-05-14T08:06:20.781Z,18.79
2023-05-14T08:07:20.757Z,18.94
2023-05-14T08:08:20.740Z,19.13
2023-05-14T08:09:20.721Z,19.28
2023-05-14T08:10:20.777Z,19.40
2023-05-14T08:11:20.750Z,19.43
2023-05-14T08:12:20.689Z,19.53
2023-05-14T08:13:20.676Z,19.42
2023-05-14T08:14:20.675Z,19.28
2023-05-14T08:15:20.670Z,19.33
2023-05-14T08:16:20.665Z,19.48
2023-05-14T08:17:20.645Z,19.60
2023-05-14T08:18:20.610Z,19.65
2023-05-14T08:19:20.645Z,19.47
2023-05-14T08:20:20.593Z,19.46
2023-05-14T08:21:20.571Z,19.40
2023-05-14T08:22:20.581Z,19.54
2023-05-14T08:23:20.558Z,19.63
2023-05-14T08:24:20.524Z,19.70
2023-05-14T08:25:20.533Z,19.87
2023-05-14T08:26:20.507Z,20.06
2023-05-14T08:27:20.500Z,20.16
2023-05-14T08:28:20.475Z,20.12
2023-05-14T08:29:20.482Z,20.21
2023-05-14T08:30:20.474Z,20.30
2023-05-14T08:31:20.506Z,20.10
2023-05-14T08:32:23.805Z,19.87
2023-05-14T08:33:20.417Z,19.88
2023-05-14T08:34:20.413Z,19.94
2023-05-14T08:35:20.391Z,20.00
2023-05-14T08:36:20.377Z,20.05
2023-05-14T08:37:20.362Z,20.20
2023-05-14T08:38:20.352Z,20.34
2023-05-14T08:39:20.361Z,20.47
2023-05-14T08:40:20.335Z,20.50
2023-05-14T08:41:20.338Z,20.31
2023-05-14T08:42:20.316Z,20.21
2023-05-14T08:43:20.337Z,20.20
2023-05-14T08:44:20.315Z,20.24
2023-05-14T08:45:20.280Z,20.30
2023-05-14T08:46:20.253Z,20.24
2023-05-14T08:47:20.240Z,20.15
2023-05-14T08:48:20.337Z,20.16
2023-05-14T08:49:20.221Z,20.10
2023-05-14T08:50:27.716Z,20.09
2023-05-14T08:51:20.198Z,20.24
2023-05-14T08:52:20.193Z,20.41
2023-05-14T08:53:20.307Z,20.43
2023-05-14T08:54:20.142Z,20.46
2023-05-14T08:55:20.149Z,20.51
2023-05-14T08:56:20.122Z,20.43
2023-05-14T08:57:20.168Z,20.34
2023-05-14T08:58:20.119Z,20.23
2023-05-14T08:59:20.085Z,20.15
2023-05-14T09:00:20.077Z,20.09
2023-05-14T09:01:20.132Z,20.21
2023-05-14T09:02:20.062Z,20.21
2023-05-14T09:03:20.061Z,20.27
2023-05-14T09:04:20.073Z,20.31
2023-05-14T09:05:20.008Z,20.49
2023-05-14T09:06:19.987Z,20.66
2023-05-14T09:07:19.993Z,20.89
2023-05-14T09:08:19.970Z,21.11
2023-05-14T09:09:19.957Z,21.29
2023-05-14T09:10:19.934Z,21.16
2023-05-14T09:11:19.936Z,21.26
2023-05-14T09:12:19.925Z,21.26
2023-05-14T09:13:19.914Z,21.14
2023-05-14T09:14:19.895Z,20.99
2023-05-14T09:15:19.897Z,20.93
2023-05-14T09:16:19.937Z,20.87
2023-05-14T09:17:19.860Z,20.95
2023-05-14T09:18:19.835Z,21.01
2023-05-14T09:19:19.925Z,20.91
2023-05-14T09:20:19.802Z,20.81
2023-05-14T09:21:19.863Z,20.66
2023-05-14T09:22:19.795Z,20.72
2023-05-14T09:23:19.765Z,20.71
2023-05-14T09:24:19.753Z,20.77
2023-05-14T09:25:19.742Z,21.02
2023-05-14T09:26:19.739Z,21.24
2023-05-14T09:27:19.717Z,21.45
2023-05-14T09:28:19.699Z,21.66
2023-05-14T09:29:19.689Z,21.56
2023-05-14T09:30:19.693Z,21.57
2023-05-14T09:31:19.722Z,21.42
2023-05-14T09:32:19.649Z,21.09
2023-05-14T09:33:19.638Z,20.90
2023-05-14T09:34:19.629Z,20.86
2023-05-14T09:35:19.627Z,21.08
2023-05-14T09:36:19.593Z,21.39
2023-05-14T09:37:19.584Z,21.66
2023-05-14T09:38:19.576Z,21.97
2023-05-14T09:39:19.578Z,22.20
2023-05-14T09:40:19.562Z,22.22
2023-05-14T09:41:19.535Z,22.34
2023-05-14T09:42:19.520Z,22.39
2023-05-14T09:43:19.509Z,22.37
2023-05-14T09:44:19.515Z,22.34
2023-05-14T09:45:19.505Z,21.81
2023-05-14T09:46:19.464Z,21.64
2023-05-14T09:47:19.479Z,21.74
2023-05-14T09:48:19.439Z,22.01
2023-05-14T09:49:19.444Z,22.29
2023-05-14T09:50:19.419Z,22.50
2023-05-14T09:51:19.402Z,22.60
2023-05-14T09:52:19.419Z,22.72
2023-05-14T09:53:19.390Z,22.87
2023-05-14T09:54:19.380Z,23.04
2023-05-14T09:55:19.352Z,22.96
2023-05-14T09:56:19.342Z,22.96
2023-05-14T09:57:19.330Z,22.78
2023-05-14T09:58:19.309Z,22.47
2023-05-14T09:59:19.314Z,22.32
2023-05-14T10:00:19.301Z,22.13
2023-05-14T10:01:19.315Z,22.23
2023-05-14T10:02:19.253Z,22.29
2023-05-14T10:03:20.010Z,22.39
2023-05-14T10:04:19.265Z,22.09
2023-05-14T10:05:19.228Z,21.97
2023-05-14T10:06:19.219Z,22.22
2023-05-14T10:07:19.196Z,22.41
2023-05-14T10:08:19.190Z,22.64
2023-05-14T10:09:19.183Z,22.90
2023-05-14T10:10:19.152Z,23.02
2023-05-14T10:11:19.145Z,23.12
2023-05-14T10:12:19.125Z,22.68
2023-05-14T10:13:19.134Z,22.43
2023-05-14T10:14:19.110Z,22.17
2023-05-14T10:15:19.089Z,22.28
2023-05-14T10:16:19.097Z,22.67
2023-05-14T10:17:19.129Z,22.78
2023-05-14T10:18:19.142Z,22.71
2023-05-14T10:19:19.096Z,22.71
2023-05-14T10:20:19.053Z,22.86
2023-05-14T10:21:19.008Z,23.04
2023-05-14T10:22:19.024Z,23.15
2023-05-14T10:23:18.998Z,23.43
2023-05-14T10:24:18.984Z,23.67
2023-05-14T10:25:18.958Z,23.86
2023-05-14T10:26:18.961Z,23.97
2023-05-14T10:27:18.944Z,24.07
2023-05-14T10:28:18.918Z,23.89
2023-05-14T10:29:18.914Z,23.97
2023-05-14T10:30:18.953Z,23.97
2023-05-14T10:31:18.893Z,24.05
2023-05-14T10:32:18.885Z,24.23
2023-05-14T10:33:18.975Z,24.47
2023-05-14T10:34:18.855Z,24.68
2023-05-14T10:35:18.834Z,24.71
2023-05-14T10:36:18.873Z,24.79
2023-05-14T10:37:18.819Z,24.91
2023-05-14T10:38:18.808Z,24.91
2023-05-14T10:39:18.780Z,24.98
2023-05-14T10:40:18.864Z,25.02
2023-05-14T10:41:18.763Z,25.15
2023-05-14T10:42:18.760Z,25.07
2023-05-14T10:43:18.726Z,24.98
2023-05-14T10:44:18.721Z,24.69
2023-05-14T10:45:18.710Z,24.67
2023-05-14T10:46:18.716Z,24.42
2023-05-14T10:47:18.677Z,23.85
2023-05-14T10:48:18.711Z,23.89
2023-05-14T10:49:28.258Z,24.12
2023-05-14T10:50:19.702Z,23.92
2023-05-14T10:51:18.710Z,23.34
2023-05-14T10:52:18.633Z,22.86
2023-05-14T10:53:18.596Z,22.82
2023-05-14T10:54:18.611Z,23.01
2023-05-14T10:55:18.586Z,22.90
2023-05-14T10:56:18.564Z,22.74
2023-05-14T10:57:18.542Z,22.62
2023-05-14T10:58:18.536Z,22.56
2023-05-14T10:59:18.531Z,22.89
2023-05-14T11:00:18.562Z,23.26
2023-05-14T11:01:18.507Z,23.46
2023-05-14T11:02:18.489Z,23.14
2023-05-14T11:03:18.482Z,23.04
2023-05-14T11:04:18.532Z,23.15
2023-05-14T11:05:18.460Z,23.40
2023-05-14T11:06:18.440Z,23.82
2023-05-14T11:07:18.425Z,23.94
2023-05-14T11:08:18.429Z,24.24
2023-05-14T11:09:18.411Z,24.54
2023-05-14T11:10:18.504Z,24.85
2023-05-14T11:11:18.375Z,24.95
2023-05-14T11:12:18.383Z,24.98
2023-05-14T11:13:18.349Z,24.68
2023-05-14T11:14:18.352Z,24.24
2023-05-14T11:15:18.342Z,24.34
2023-05-14T11:17:18.359Z,24.26
2023-05-14T11:18:18.293Z,24.29
2023-05-14T11:19:18.393Z,24.13
2023-05-14T11:20:18.296Z,24.00
2023-05-14T11:21:18.298Z,23.76
2023-05-14T11:22:18.242Z,23.58
2023-05-14T11:23:18.233Z,23.52
2023-05-14T11:24:18.230Z,23.52
2023-05-14T11:25:18.201Z,23.87
2023-05-14T11:26:20.785Z,24.19
2023-05-14T11:27:18.169Z,24.31
2023-05-14T11:28:18.179Z,24.39
2023-05-14T11:29:18.157Z,24.69
2023-05-14T11:30:18.299Z,25.07
2023-05-14T11:31:18.163Z,24.79
2023-05-14T11:32:18.119Z,24.95
2023-05-14T11:33:18.120Z,25.15
2023-05-14T11:34:18.092Z,25.47
2023-05-14T11:35:18.125Z,25.52
2023-05-14T11:36:18.081Z,25.89
2023-05-14T11:37:18.041Z,25.59
2023-05-14T11:38:18.047Z,24.83
2023-05-14T11:39:18.027Z,24.12
2023-05-14T11:40:18.074Z,23.52
2023-05-14T11:41:17.998Z,23.94
2023-05-14T11:42:17.998Z,24.49
2023-05-14T11:43:17.996Z,24.98
2023-05-14T11:44:17.974Z,25.37
2023-05-14T11:45:17.961Z,25.71
2023-05-14T11:46:18.074Z,24.97
2023-05-14T11:47:17.925Z,24.47
2023-05-14T11:48:17.909Z,24.12
2023-05-14T11:49:17.892Z,24.24
2023-05-14T11:50:17.884Z,24.61
2023-05-14T11:51:17.885Z,24.57
2023-05-14T11:52:17.868Z,24.73
2023-05-14T11:53:17.839Z,25.20
2023-05-14T11:54:17.831Z,25.80
2023-05-14T11:55:17.824Z,26.27
2023-05-14T11:56:17.834Z,26.57
2023-05-14T11:57:17.833Z,26.46
2023-05-14T11:58:17.772Z,25.98
2023-05-14T11:59:17.768Z,25.01
2023-05-14T12:00:17.752Z,24.57
2023-05-14T12:01:17.836Z,24.88
2023-05-14T12:02:17.871Z,25.07
2023-05-14T12:03:17.861Z,25.15
2023-05-14T12:04:17.746Z,25.68
2023-05-14T12:05:17.689Z,25.69
2023-05-14T12:06:17.681Z,25.22
2023-05-14T12:07:17.669Z,24.68
2023-05-14T12:08:17.670Z,24.61
2023-05-14T12:09:17.638Z,24.92
2023-05-14T12:10:17.628Z,25.20
2023-05-14T12:11:17.633Z,25.38
2023-05-14T12:12:17.602Z,25.24
2023-05-14T12:13:17.602Z,25.47
2023-05-14T12:14:17.568Z,25.30
2023-05-14T12:15:17.581Z,25.43
2023-05-14T12:16:17.634Z,25.49
2023-05-14T12:17:17.543Z,25.61
2023-05-14T12:18:24.555Z,25.53
2023-05-14T12:19:18.556Z,25.22
2023-05-14T12:20:17.513Z,24.92
2023-05-14T12:21:17.488Z,24.23
2023-05-14T12:22:17.465Z,23.64
2023-05-14T12:23:17.466Z,23.87
2023-05-14T12:24:17.446Z,24.45
2023-05-14T12:25:17.518Z,24.49
2023-05-14T12:26:17.433Z,24.38
2023-05-14T12:27:17.409Z,24.59
2023-05-14T12:28:17.402Z,25.16
2023-05-14T12:29:17.411Z,25.71
2023-05-14T12:30:21.610Z,25.74
2023-05-14T12:31:17.401Z,25.52
2023-05-14T12:32:17.350Z,25.77
2023-05-14T12:33:17.344Z,25.86
2023-05-14T12:34:17.339Z,25.72
2023-05-14T12:35:17.309Z,25.99
2023-05-14T12:36:21.726Z,25.62
2023-05-14T12:37:18.292Z,25.35
2023-05-14T12:38:17.273Z,25.82
2023-05-14T12:39:17.277Z,26.42
2023-05-14T12:40:17.272Z,26.80
2023-05-14T12:41:17.241Z,26.99
2023-05-14T12:42:17.224Z,27.32
2023-05-14T12:43:17.224Z,27.59
2023-05-14T12:44:17.219Z,27.73
2023-05-14T12:45:17.184Z,27.62
2023-05-14T12:46:17.332Z,27.51
2023-05-14T12:47:17.243Z,27.23
2023-05-14T12:48:17.154Z,26.74
2023-05-14T12:49:17.133Z,26.36
2023-05-14T12:50:17.120Z,25.71
2023-05-14T12:51:17.111Z,25.07
2023-05-14T12:52:33.023Z,25.09
2023-05-14T12:53:18.111Z,25.01
2023-05-14T12:54:17.072Z,25.07
2023-05-14T12:55:17.158Z,25.09
2023-05-14T12:56:17.041Z,25.09
2023-05-14T12:57:17.047Z,25.37
2023-05-14T12:58:17.022Z,25.30
2023-05-14T12:59:17.016Z,25.28
2023-05-14T13:00:17.020Z,25.27
2023-05-14T13:01:17.021Z,25.16
2023-05-14T13:02:17.513Z,24.95
2023-05-14T13:03:17.014Z,25.16
2023-05-14T13:04:17.014Z,25.64
2023-05-14T13:05:16.950Z,25.99
2023-05-14T13:06:16.920Z,26.08
2023-05-14T13:07:16.920Z,26.46
2023-05-14T13:08:16.903Z,26.42
2023-05-14T13:09:16.876Z,25.98
2023-05-14T13:10:16.869Z,25.35
2023-05-14T13:11:16.858Z,25.07
2023-05-14T13:12:16.854Z,25.16
2023-05-14T13:13:16.830Z,25.28
2023-05-14T13:14:18.327Z,25.37
2023-05-14T13:15:16.820Z,25.17
2023-05-14T13:16:17.002Z,25.49
2023-05-14T13:17:16.816Z,26.17
2023-05-14T13:18:16.768Z,26.64
2023-05-14T13:19:16.783Z,27.24
2023-05-14T13:20:16.733Z,27.95
2023-05-14T13:21:16.745Z,28.56
2023-05-14T13:22:16.719Z,28.88
2023-05-14T13:23:16.701Z,29.10
2023-05-14T13:24:16.690Z,28.35
2023-05-14T13:25:16.697Z,28.40
2023-05-14T13:26:16.679Z,28.53
2023-05-14T13:27:16.667Z,28.81
2023-05-14T13:28:16.637Z,28.75
2023-05-14T13:29:16.635Z,28.80
2023-05-14T13:30:16.622Z,28.85
2023-05-14T13:31:16.665Z,28.88
2023-05-14T13:32:16.585Z,28.78
2023-05-14T13:33:16.570Z,28.82
2023-05-14T13:34:16.570Z,28.50
2023-05-14T13:35:16.573Z,28.10
2023-05-14T13:36:16.546Z,28.13
2023-05-14T13:37:16.532Z,28.28
2023-05-14T13:38:16.531Z,28.40
2023-05-14T13:39:16.518Z,28.46
2023-05-14T13:40:16.498Z,28.72
2023-05-14T13:41:16.491Z,28.95
2023-05-14T13:42:16.465Z,28.62
2023-05-14T13:43:16.451Z,28.73
2023-05-14T13:44:16.456Z,28.91
2023-05-14T13:45:16.436Z,29.03
2023-05-14T13:46:16.471Z,29.15
2023-05-14T13:47:16.408Z,29.22
2023-05-14T13:48:16.427Z,29.28
2023-05-14T13:49:16.391Z,29.19
2023-05-14T13:50:16.372Z,29.43
2023-05-14T13:51:16.367Z,29.47
2023-05-14T13:52:16.354Z,29.62
2023-05-14T13:53:16.335Z,29.78
2023-05-14T13:54:16.322Z,29.20
2023-05-14T13:55:16.304Z,28.84
2023-05-14T13:56:16.294Z,28.59
2023-05-14T13:57:16.279Z,28.40
2023-05-14T13:58:16.286Z,28.50
2023-05-14T13:59:16.263Z,28.68
2023-05-14T14:00:16.258Z,28.62
2023-05-14T14:01:16.263Z,28.46
2023-05-14T14:02:16.230Z,27.61
2023-05-14T14:03:16.218Z,27.16
2023-05-14T14:04:16.186Z,26.95
2023-05-14T14:05:16.209Z,26.59
2023-05-14T14:06:16.161Z,26.98
2023-05-14T14:07:16.152Z,27.13
2023-05-14T14:08:23.340Z,26.73
2023-05-14T14:09:17.133Z,26.67
2023-05-14T14:10:16.113Z,26.68
2023-05-14T14:11:16.112Z,27.05
2023-05-14T14:12:16.122Z,27.46
2023-05-14T14:13:16.143Z,27.79
2023-05-14T14:14:16.060Z,28.22
2023-05-14T14:15:16.055Z,28.53
2023-05-14T14:16:16.071Z,28.66
2023-05-14T14:17:16.044Z,28.87
2023-05-14T14:18:16.017Z,29.00
2023-05-14T14:19:17.075Z,28.82
2023-05-14T14:20:15.983Z,28.51
2023-05-14T14:21:15.984Z,27.35
2023-05-14T14:22:15.974Z,26.44
2023-05-14T14:23:15.976Z,25.75
2023-05-14T14:24:15.930Z,25.50
2023-05-14T14:25:15.934Z,25.43
2023-05-14T14:26:16.042Z,25.20
2023-05-14T14:27:15.896Z,24.80
2023-05-14T14:28:15.915Z,24.54
2023-05-14T14:29:15.876Z,24.37
2023-05-14T14:30:15.893Z,24.31
2023-05-14T14:31:15.882Z,24.31
2023-05-14T14:32:15.832Z,24.24
2023-05-14T14:33:15.866Z,24.10
2023-05-14T14:34:15.819Z,24.02
2023-05-14T14:35:15.806Z,23.82
2023-05-14T14:36:15.796Z,23.45
2023-05-14T14:37:15.793Z,23.14
2023-05-14T14:38:15.767Z,22.74
2023-05-14T14:39:15.765Z,22.35
2023-05-14T14:40:15.748Z,21.95
2023-05-14T14:41:15.730Z,21.69
2023-05-14T14:42:15.713Z,21.51
2023-05-14T14:43:15.694Z,21.35
2023-05-14T14:44:15.693Z,21.24
2023-05-14T14:45:15.684Z,21.13
2023-05-14T14:46:15.695Z,20.98
2023-05-14T14:47:15.660Z,20.93
2023-05-14T14:48:15.641Z,20.84
2023-05-14T14:49:15.641Z,20.79
2023-05-14T14:50:22.681Z,20.65
2023-05-14T14:51:15.589Z,20.59
2023-05-14T14:52:15.595Z,20.53
2023-05-14T14:53:15.560Z,20.41
2023-05-14T14:54:15.571Z,20.35
2023-05-14T14:55:16.287Z,20.41
2023-05-14T14:56:15.542Z,20.47
2023-05-14T14:57:15.531Z,20.53
2023-05-14T14:58:15.577Z,20.68
2023-05-14T14:59:15.506Z,20.86
2023-05-14T15:00:15.487Z,20.99
2023-05-14T15:01:15.515Z,21.09
2023-05-14T15:02:15.495Z,21.26
2023-05-14T15:03:15.561Z,21.26
2023-05-14T15:04:15.445Z,21.35
2023-05-14T15:05:15.424Z,21.34
2023-05-14T15:06:15.406Z,21.30
2023-05-14T15:07:15.396Z,21.39
2023-05-14T15:08:15.427Z,21.50
2023-05-14T15:09:15.364Z,21.61
2023-05-14T15:10:15.356Z,21.72
2023-05-14T15:11:15.341Z,21.85
2023-05-14T15:12:15.341Z,21.99
2023-05-14T15:13:15.367Z,22.07
2023-05-14T15:14:15.320Z,22.09
2023-05-14T15:15:15.292Z,22.02
2023-05-14T15:16:15.314Z,22.07
2023-05-14T15:17:15.267Z,22.10
2023-05-14T15:18:15.275Z,22.10
2023-05-14T15:19:15.299Z,22.06
2023-05-14T15:20:15.234Z,22.02
2023-05-14T15:21:15.224Z,22.16
2023-05-14T15:22:15.215Z,22.35
2023-05-14T15:23:15.203Z,22.56
2023-05-14T15:24:15.180Z,22.77
2023-05-14T15:25:15.170Z,22.97
2023-05-14T15:26:15.151Z,22.93
2023-05-14T15:27:15.155Z,22.99
2023-05-14T15:28:15.123Z,23.17
2023-05-14T15:29:15.106Z,23.14
2023-05-14T15:30:15.121Z,22.89
2023-05-14T15:31:15.126Z,22.77
2023-05-14T15:32:15.088Z,22.74
2023-05-14T15:33:15.052Z,22.75
2023-05-14T15:34:15.070Z,22.96
2023-05-14T15:35:15.043Z,23.23
2023-05-14T15:36:15.212Z,23.42
2023-05-14T15:37:15.024Z,23.55
2023-05-14T15:38:15.037Z,23.40
2023-05-14T15:39:14.981Z,23.07
2023-05-14T15:40:14.973Z,23.04
2023-05-14T15:41:14.960Z,22.99
2023-05-14T15:42:14.954Z,22.96
2023-05-14T15:43:14.926Z,23.01
2023-05-14T15:44:14.920Z,23.01
2023-05-14T15:45:14.915Z,23.09
2023-05-14T15:46:14.970Z,23.12
2023-05-14T15:47:14.876Z,23.17
2023-05-14T15:48:14.904Z,23.15
2023-05-14T15:49:14.854Z,23.32
2023-05-14T15:50:14.864Z,23.35
2023-05-14T15:51:14.865Z,23.11
2023-05-14T15:52:14.820Z,22.87
2023-05-14T15:53:14.800Z,22.90
2023-05-14T15:54:14.790Z,22.97
2023-05-14T15:55:14.799Z,23.09
2023-05-14T15:56:14.781Z,23.08
2023-05-14T15:57:14.752Z,22.86
2023-05-14T15:58:14.743Z,22.77
2023-05-14T15:59:14.762Z,22.92
2023-05-14T16:00:14.728Z,23.02
2023-05-14T16:01:14.771Z,23.07
2023-05-14T16:02:14.708Z,23.11
2023-05-14T16:03:14.786Z,23.24
2023-05-14T16:04:14.670Z,23.19
2023-05-14T16:05:14.667Z,23.19
2023-05-14T16:06:14.715Z,23.27
2023-05-14T16:07:14.635Z,23.38
2023-05-14T16:08:14.628Z,23.50
2023-05-14T16:09:14.604Z,23.52
2023-05-14T16:10:14.627Z,23.62
2023-05-14T16:11:14.578Z,23.82
2023-05-14T16:12:14.570Z,23.90
2023-05-14T16:13:14.557Z,23.92
2023-05-14T16:14:14.556Z,23.92
2023-05-14T16:15:14.543Z,23.94
2023-05-14T16:16:14.546Z,23.94
2023-05-14T16:17:14.513Z,23.82
2023-05-14T16:18:14.497Z,23.65
2023-05-14T16:19:14.526Z,23.45
2023-05-14T16:20:14.479Z,23.15
2023-05-14T16:21:14.462Z,23.15
2023-05-14T16:22:14.461Z,23.29
2023-05-14T16:23:14.437Z,23.38
2023-05-14T16:24:14.435Z,23.40
2023-05-14T16:25:14.412Z,23.46
2023-05-14T16:26:14.403Z,23.57
2023-05-14T16:27:14.400Z,23.70
2023-05-14T16:28:14.376Z,23.83
2023-05-14T16:29:14.369Z,23.87
2023-05-14T16:30:14.348Z,23.72
2023-05-14T16:31:14.342Z,23.26
2023-05-14T16:32:14.347Z,22.82
2023-05-14T16:33:14.359Z,22.67
2023-05-14T16:34:14.314Z,22.53
2023-05-14T16:35:14.283Z,22.56
2023-05-14T16:36:14.278Z,22.49
2023-05-14T16:37:14.265Z,22.47
2023-05-14T16:38:14.259Z,22.38
2023-05-14T16:39:14.231Z,22.09
2023-05-14T16:40:14.228Z,21.99
2023-05-14T16:41:14.212Z,22.04
2023-05-14T16:42:14.198Z,21.98
2023-05-14T16:43:14.192Z,21.85
2023-05-14T16:44:14.169Z,21.71
2023-05-14T16:45:14.167Z,21.39
2023-05-14T16:46:14.396Z,21.21
2023-05-14T16:47:14.143Z,20.93
2023-05-14T16:48:14.168Z,20.59
2023-05-14T16:49:14.104Z,20.41
2023-05-14T16:50:14.091Z,20.33
2023-05-14T16:51:14.073Z,20.25
2023-05-14T16:52:14.073Z,20.24
2023-05-14T16:53:14.050Z,20.20
2023-05-14T16:54:14.054Z,20.13
2023-05-14T16:55:14.038Z,20.12
2023-05-14T16:56:14.023Z,20.16
2023-05-14T16:57:13.998Z,20.15
2023-05-14T16:58:13.980Z,20.09
2023-05-14T16:59:13.982Z,20.09
2023-05-14T17:00:13.979Z,20.10
2023-05-14T17:01:13.992Z,20.10
2023-05-14T17:02:13.947Z,20.12
2023-05-14T17:03:13.961Z,20.12
2023-05-14T17:04:13.972Z,20.16
2023-05-14T17:05:13.887Z,20.25
2023-05-14T17:06:13.889Z,20.31
2023-05-14T17:07:13.860Z,20.41
2023-05-14T17:08:13.873Z,20.46
2023-05-14T17:09:13.864Z,20.54